sensor_id;sensor_type;location;lat;lon;timestamp;pressure;altitude;pressure_sealevel;temperature;humidity
5814;BME280;2933;52.302;8.134;2023-08-31T00:04:31;99638.44;;;11.61;100.00
5814;BME280;2933;52.302;8.134;2023-08-31T00:09:32;99640.47;;;11.57;100.00
5814;BME280;2933;52.302;8.134;2023-08-31T00:14:34;99634.66;;;11.65;100.00
5814;BME280;2933;52.302;8.134;2023-08-31T00:19:39;99634.28;;;11.58;100.00
5814;BME280;2933;52.302;8.134;2023-08-31T00:24:40;99641.06;;;11.50;100.00
5814;BME280;2933;52.302;8.134;2023-08-31T00:29:42;99642.00;;;11.48;100.00
5814;BME280;2933;52.302;8.134;2023-08-31T00:34:51;99642.72;;;11.51;100.00
5814;BME280;2933;52.302;8.134;2023-08-31T00:39:52;99637.63;;;11.49;100.00
5814;BME280;2933;52.302;8.134;2023-08-31T00:44:54;99640.34;;;11.59;100.00
5814;BME280;2933;52.302;8.134;2023-08-31T00:49:57;99639.50;;;11.58;100.00
5814;BME280;2933;52.302;8.134;2023-08-31T00:55:00;99644.06;;;11.56;100.00
5814;BME280;2933;52.302;8.134;2023-08-31T01:00:03;99642.97;;;11.59;100.00
5814;BME280;2933;52.302;8.134;2023-08-31T01:05:13;99638.81;;;11.45;100.00
5814;BME280;2933;52.302;8.134;2023-08-31T01:10:26;99638.31;;;11.51;100.00
5814;BME280;2933;52.302;8.134;2023-08-31T01:15:31;99646.06;;;11.53;100.00
5814;BME280;2933;52.302;8.134;2023-08-31T01:20:41;99647.38;;;11.36;100.00
5814;BME280;2933;52.302;8.134;2023-08-31T01:25:45;99627.19;;;11.26;100.00
5814;BME280;2933;52.302;8.134;2023-08-31T01:30:48;99627.88;;;11.40;100.00
5814;BME280;2933;52.302;8.134;2023-08-31T01:35:53;99633.69;;;11.43;100.00
5814;BME280;2933;52.302;8.134;2023-08-31T01:41:00;99639.19;;;11.40;100.00
5814;BME280;2933;52.302;8.134;2023-08-31T01:46:04;99619.09;;;11.41;100.00
5814;BME280;2933;52.302;8.134;2023-08-31T01:51:07;99634.31;;;11.36;100.00
5814;BME280;2933;52.302;8.134;2023-08-31T01:56:10;99615.75;;;11.39;100.00
5814;BME280;2933;52.302;8.134;2023-08-31T02:01:14;99625.75;;;11.34;100.00
5814;BME280;2933;52.302;8.134;2023-08-31T02:06:15;99632.16;;;11.29;100.00
5814;BME280;2933;52.302;8.134;2023-08-31T02:11:18;99645.72;;;11.35;100.00
5814;BME280;2933;52.302;8.134;2023-08-31T02:16:20;99621.94;;;11.15;100.00
5814;BME280;2933;52.302;8.134;2023-08-31T02:21:22;99649.53;;;11.19;100.00
5814;BME280;2933;52.302;8.134;2023-08-31T02:26:25;99651.28;;;11.19;100.00
5814;BME280;2933;52.302;8.134;2023-08-31T02:31:26;99647.59;;;11.21;100.00
5814;BME280;2933;52.302;8.134;2023-08-31T02:36:28;99649.75;;;11.27;100.00
5814;BME280;2933;52.302;8.134;2023-08-31T02:41:31;99642.75;;;11.17;100.00
5814;BME280;2933;52.302;8.134;2023-08-31T02:46:33;99607.78;;;10.83;100.00
5814;BME280;2933;52.302;8.134;2023-08-31T02:51:34;99640.59;;;10.99;100.00
5814;BME280;2933;52.302;8.134;2023-08-31T02:56:37;99647.47;;;11.11;100.00
5814;BME280;2933;52.302;8.134;2023-08-31T03:01:39;99652.59;;;11.02;100.00
5814;BME280;2933;52.302;8.134;2023-08-31T03:06:40;99641.53;;;10.98;100.00
5814;BME280;2933;52.302;8.134;2023-08-31T03:11:44;99646.88;;;10.96;100.00
5814;BME280;2933;52.302;8.134;2023-08-31T03:16:45;99642.69;;;10.94;100.00
5814;BME280;2933;52.302;8.134;2023-08-31T03:21:47;99639.94;;;10.73;100.00
5814;BME280;2933;52.302;8.134;2023-08-31T03:26:50;99643.06;;;10.89;100.00
5814;BME280;2933;52.302;8.134;2023-08-31T03:31:51;99647.31;;;10.79;100.00
5814;BME280;2933;52.302;8.134;2023-08-31T03:36:53;99650.19;;;10.87;100.00
5814;BME280;2933;52.302;8.134;2023-08-31T03:41:56;99655.28;;;10.77;100.00
5814;BME280;2933;52.302;8.134;2023-08-31T03:46:57;99652.19;;;10.72;100.00
5814;BME280;2933;52.302;8.134;2023-08-31T03:51:59;99663.22;;;10.76;100.00
5814;BME280;2933;52.302;8.134;2023-08-31T03:57:02;99654.66;;;10.74;100.00
5814;BME280;2933;52.302;8.134;2023-08-31T04:02:04;99654.09;;;10.81;100.00
5814;BME280;2933;52.302;8.134;2023-08-31T04:07:06;99668.22;;;10.90;100.00
5814;BME280;2933;52.302;8.134;2023-08-31T04:12:09;99680.59;;;10.88;100.00
5814;BME280;2933;52.302;8.134;2023-08-31T04:17:10;99693.69;;;10.99;100.00
5814;BME280;2933;52.302;8.134;2023-08-31T04:22:12;99686.44;;;10.92;100.00
5814;BME280;2933;52.302;8.134;2023-08-31T04:27:15;99695.47;;;10.99;100.00
5814;BME280;2933;52.302;8.134;2023-08-31T04:32:16;99687.84;;;10.96;100.00
5814;BME280;2933;52.302;8.134;2023-08-31T04:37:18;99680.47;;;10.90;100.00
5814;BME280;2933;52.302;8.134;2023-08-31T04:42:21;99689.13;;;10.90;100.00
5814;BME280;2933;52.302;8.134;2023-08-31T04:47:22;99686.44;;;11.03;100.00
5814;BME280;2933;52.302;8.134;2023-08-31T04:52:24;99688.94;;;11.05;100.00
5814;BME280;2933;52.302;8.134;2023-08-31T04:57:27;99690.50;;;11.07;100.00
5814;BME280;2933;52.302;8.134;2023-08-31T05:02:28;99697.50;;;11.07;100.00
5814;BME280;2933;52.302;8.134;2023-08-31T05:07:30;99685.50;;;10.93;100.00
5814;BME280;2933;52.302;8.134;2023-08-31T05:12:33;99696.63;;;10.95;100.00
5814;BME280;2933;52.302;8.134;2023-08-31T05:17:34;99713.88;;;11.09;100.00
5814;BME280;2933;52.302;8.134;2023-08-31T05:22:36;99711.53;;;11.06;100.00
5814;BME280;2933;52.302;8.134;2023-08-31T05:27:39;99715.19;;;11.03;100.00
5814;BME280;2933;52.302;8.134;2023-08-31T05:32:40;99719.38;;;11.06;100.00
5814;BME280;2933;52.302;8.134;2023-08-31T05:37:42;99718.03;;;11.11;100.00
5814;BME280;2933;52.302;8.134;2023-08-31T05:42:45;99710.81;;;11.15;100.00
5814;BME280;2933;52.302;8.134;2023-08-31T05:47:46;99716.00;;;10.92;100.00
5814;BME280;2933;52.302;8.134;2023-08-31T05:52:48;99722.78;;;11.06;100.00
5814;BME280;2933;52.302;8.134;2023-08-31T05:57:51;99724.03;;;11.25;100.00
5814;BME280;2933;52.302;8.134;2023-08-31T06:02:52;99712.41;;;11.29;100.00
5814;BME280;2933;52.302;8.134;2023-08-31T06:07:54;99720.72;;;11.34;100.00
5814;BME280;2933;52.302;8.134;2023-08-31T06:12:57;99722.97;;;11.39;100.00
5814;BME280;2933;52.302;8.134;2023-08-31T06:17:58;99741.53;;;11.58;100.00
5814;BME280;2933;52.302;8.134;2023-08-31T06:23:00;99753.66;;;11.71;100.00
5814;BME280;2933;52.302;8.134;2023-08-31T06:28:03;99752.59;;;11.73;100.00
5814;BME280;2933;52.302;8.134;2023-08-31T06:33:08;99756.66;;;11.89;100.00
5814;BME280;2933;52.302;8.134;2023-08-31T06:38:10;99758.44;;;12.00;100.00
5814;BME280;2933;52.302;8.134;2023-08-31T06:43:13;99743.78;;;11.86;100.00
5814;BME280;2933;52.302;8.134;2023-08-31T06:48:14;99753.53;;;12.18;100.00
5814;BME280;2933;52.302;8.134;2023-08-31T06:53:16;99777.09;;;12.18;100.00
5814;BME280;2933;52.302;8.134;2023-08-31T06:58:19;99771.97;;;11.93;100.00
5814;BME280;2933;52.302;8.134;2023-08-31T07:03:20;99767.94;;;11.78;100.00
5814;BME280;2933;52.302;8.134;2023-08-31T07:08:22;99771.53;;;12.00;100.00
5814;BME280;2933;52.302;8.134;2023-08-31T07:13:25;99774.50;;;12.18;100.00
5814;BME280;2933;52.302;8.134;2023-08-31T07:18:26;99777.22;;;12.16;100.00
5814;BME280;2933;52.302;8.134;2023-08-31T07:23:28;99788.63;;;12.26;100.00
5814;BME280;2933;52.302;8.134;2023-08-31T07:28:31;99781.50;;;12.06;100.00
5814;BME280;2933;52.302;8.134;2023-08-31T07:33:33;99785.09;;;12.16;100.00
5814;BME280;2933;52.302;8.134;2023-08-31T07:38:35;99786.00;;;12.38;100.00
5814;BME280;2933;52.302;8.134;2023-08-31T07:43:38;99796.94;;;12.43;100.00
5814;BME280;2933;52.302;8.134;2023-08-31T07:48:39;99804.69;;;12.44;100.00
5814;BME280;2933;52.302;8.134;2023-08-31T07:53:41;99805.38;;;12.47;100.00
5814;BME280;2933;52.302;8.134;2023-08-31T07:58:44;99814.81;;;12.38;100.00
5814;BME280;2933;52.302;8.134;2023-08-31T08:03:46;99816.59;;;12.49;100.00
5814;BME280;2933;52.302;8.134;2023-08-31T08:08:47;99816.91;;;12.55;100.00
5814;BME280;2933;52.302;8.134;2023-08-31T08:13:50;99816.81;;;12.57;100.00
5814;BME280;2933;52.302;8.134;2023-08-31T08:18:52;99819.22;;;12.81;100.00
5814;BME280;2933;52.302;8.134;2023-08-31T08:23:53;99826.00;;;12.84;100.00
5814;BME280;2933;52.302;8.134;2023-08-31T08:28:56;99831.06;;;12.97;100.00
5814;BME280;2933;52.302;8.134;2023-08-31T08:33:57;99828.09;;;13.01;100.00
5814;BME280;2933;52.302;8.134;2023-08-31T08:39:00;99839.25;;;13.15;100.00
5814;BME280;2933;52.302;8.134;2023-08-31T08:44:05;99838.78;;;13.42;100.00
5814;BME280;2933;52.302;8.134;2023-08-31T08:49:08;99844.22;;;13.50;100.00
5814;BME280;2933;52.302;8.134;2023-08-31T08:54:10;99848.56;;;13.61;100.00
5814;BME280;2933;52.302;8.134;2023-08-31T08:59:13;99853.69;;;13.63;100.00
5814;BME280;2933;52.302;8.134;2023-08-31T09:04:15;99857.72;;;13.67;100.00
5814;BME280;2933;52.302;8.134;2023-08-31T09:09:17;99850.81;;;13.66;100.00
5814;BME280;2933;52.302;8.134;2023-08-31T09:14:20;99857.31;;;13.93;100.00
5814;BME280;2933;52.302;8.134;2023-08-31T09:19:23;99866.25;;;14.11;100.00
5814;BME280;2933;52.302;8.134;2023-08-31T09:24:27;99865.31;;;14.63;100.00
5814;BME280;2933;52.302;8.134;2023-08-31T09:29:31;99858.16;;;14.75;100.00
5814;BME280;2933;52.302;8.134;2023-08-31T09:34:33;99858.03;;;15.15;100.00
5814;BME280;2933;52.302;8.134;2023-08-31T09:39:39;99852.22;;;15.22;100.00
5814;BME280;2933;52.302;8.134;2023-08-31T09:44:43;99851.66;;;15.38;100.00
5814;BME280;2933;52.302;8.134;2023-08-31T09:49:45;99832.69;;;15.44;100.00
5814;BME280;2933;52.302;8.134;2023-08-31T09:54:49;99850.53;;;15.60;100.00
5814;BME280;2933;52.302;8.134;2023-08-31T09:59:52;99867.59;;;15.46;100.00
5814;BME280;2933;52.302;8.134;2023-08-31T10:04:55;99859.31;;;15.31;100.00
5814;BME280;2933;52.302;8.134;2023-08-31T10:09:57;99857.06;;;15.56;100.00
5814;BME280;2933;52.302;8.134;2023-08-31T10:15:01;99858.66;;;15.86;100.00
5814;BME280;2933;52.302;8.134;2023-08-31T10:20:04;99854.66;;;15.82;100.00
5814;BME280;2933;52.302;8.134;2023-08-31T10:25:07;99877.59;;;16.09;100.00
5814;BME280;2933;52.302;8.134;2023-08-31T10:30:26;99874.16;;;16.09;100.00
5814;BME280;2933;52.302;8.134;2023-08-31T10:35:40;99880.97;;;15.92;100.00
5814;BME280;2933;52.302;8.134;2023-08-31T10:40:59;99867.38;;;16.34;100.00
5814;BME280;2933;52.302;8.134;2023-08-31T10:46:02;99870.13;;;16.88;100.00
5814;BME280;2933;52.302;8.134;2023-08-31T10:51:17;99877.53;;;17.03;100.00
5814;BME280;2933;52.302;8.134;2023-08-31T10:56:20;99881.44;;;16.53;100.00
5814;BME280;2933;52.302;8.134;2023-08-31T11:01:52;99876.22;;;16.43;100.00
5814;BME280;2933;52.302;8.134;2023-08-31T11:07:14;99872.19;;;16.67;100.00
5814;BME280;2933;52.302;8.134;2023-08-31T11:12:16;99875.94;;;16.64;100.00
5814;BME280;2933;52.302;8.134;2023-08-31T11:17:19;99864.31;;;16.57;100.00
5814;BME280;2933;52.302;8.134;2023-08-31T11:22:21;99868.78;;;16.28;100.00
5814;BME280;2933;52.302;8.134;2023-08-31T11:27:23;99871.44;;;16.19;100.00
5814;BME280;2933;52.302;8.134;2023-08-31T11:32:26;99871.44;;;16.19;100.00
5814;BME280;2933;52.302;8.134;2023-08-31T11:37:28;99860.47;;;15.86;100.00
5814;BME280;2933;52.302;8.134;2023-08-31T11:42:30;99896.53;;;15.75;100.00
5814;BME280;2933;52.302;8.134;2023-08-31T11:47:34;99921.56;;;14.81;100.00
5814;BME280;2933;52.302;8.134;2023-08-31T11:52:37;99928.13;;;14.04;100.00
5814;BME280;2933;52.302;8.134;2023-08-31T11:57:40;99932.09;;;13.77;100.00
5814;BME280;2933;52.302;8.134;2023-08-31T12:02:43;99911.88;;;13.68;100.00
5814;BME280;2933;52.302;8.134;2023-08-31T12:07:46;99916.84;;;13.92;100.00
5814;BME280;2933;52.302;8.134;2023-08-31T12:12:48;99894.88;;;14.14;100.00
5814;BME280;2933;52.302;8.134;2023-08-31T12:17:51;99905.66;;;14.93;100.00
5814;BME280;2933;52.302;8.134;2023-08-31T12:22:54;99918.00;;;15.41;100.00
5814;BME280;2933;52.302;8.134;2023-08-31T12:27:56;99929.53;;;15.30;100.00
5814;BME280;2933;52.302;8.134;2023-08-31T12:32:59;99925.34;;;15.08;100.00
5814;BME280;2933;52.302;8.134;2023-08-31T12:38:00;99932.78;;;14.83;100.00
5814;BME280;2933;52.302;8.134;2023-08-31T12:43:02;99941.81;;;14.60;100.00
5814;BME280;2933;52.302;8.134;2023-08-31T12:48:06;99946.78;;;14.32;100.00
5814;BME280;2933;52.302;8.134;2023-08-31T12:53:08;99947.03;;;14.50;100.00
5814;BME280;2933;52.302;8.134;2023-08-31T12:58:10;99949.88;;;14.68;100.00
5814;BME280;2933;52.302;8.134;2023-08-31T13:03:13;99936.69;;;15.09;100.00
5814;BME280;2933;52.302;8.134;2023-08-31T13:08:14;99930.22;;;15.42;100.00
5814;BME280;2933;52.302;8.134;2023-08-31T13:13:16;99930.31;;;15.99;100.00
5814;BME280;2933;52.302;8.134;2023-08-31T13:18:18;99925.78;;;16.29;100.00
5814;BME280;2933;52.302;8.134;2023-08-31T13:23:20;99924.88;;;16.76;100.00
5814;BME280;2933;52.302;8.134;2023-08-31T13:28:22;99935.03;;;16.99;100.00
5814;BME280;2933;52.302;8.134;2023-08-31T13:33:25;99938.69;;;17.34;100.00
5814;BME280;2933;52.302;8.134;2023-08-31T13:38:28;99939.75;;;17.59;100.00
5814;BME280;2933;52.302;8.134;2023-08-31T13:43:30;99947.19;;;17.82;100.00
5814;BME280;2933;52.302;8.134;2023-08-31T13:48:33;99946.13;;;17.75;100.00
5814;BME280;2933;52.302;8.134;2023-08-31T13:53:34;99947.28;;;17.36;100.00
5814;BME280;2933;52.302;8.134;2023-08-31T13:58:36;99943.88;;;17.08;100.00
5814;BME280;2933;52.302;8.134;2023-08-31T14:03:39;99943.88;;;16.80;100.00
5814;BME280;2933;52.302;8.134;2023-08-31T14:08:41;99952.03;;;16.59;100.00
5814;BME280;2933;52.302;8.134;2023-08-31T14:13:44;99956.03;;;16.25;100.00
5814;BME280;2933;52.302;8.134;2023-08-31T14:18:48;99963.47;;;15.82;100.00
5814;BME280;2933;52.302;8.134;2023-08-31T14:23:49;100023.09;;;14.73;100.00
5814;BME280;2933;52.302;8.134;2023-08-31T14:28:55;99997.69;;;14.10;100.00
5814;BME280;2933;52.302;8.134;2023-08-31T14:33:58;99994.53;;;13.95;100.00
5814;BME280;2933;52.302;8.134;2023-08-31T14:39:00;99985.25;;;13.90;100.00
5814;BME280;2933;52.302;8.134;2023-08-31T14:44:02;99979.13;;;14.01;100.00
5814;BME280;2933;52.302;8.134;2023-08-31T14:49:05;100002.31;;;14.38;100.00
5814;BME280;2933;52.302;8.134;2023-08-31T14:54:07;99998.81;;;14.90;100.00
5814;BME280;2933;52.302;8.134;2023-08-31T14:59:09;100004.84;;;15.31;100.00
5814;BME280;2933;52.302;8.134;2023-08-31T15:04:12;100000.69;;;15.29;100.00
5814;BME280;2933;52.302;8.134;2023-08-31T15:09:13;100002.22;;;15.31;100.00
5814;BME280;2933;52.302;8.134;2023-08-31T15:14:15;100019.22;;;15.17;100.00
5814;BME280;2933;52.302;8.134;2023-08-31T15:19:18;100017.84;;;15.13;100.00
5814;BME280;2933;52.302;8.134;2023-08-31T15:24:20;100004.28;;;15.08;100.00
5814;BME280;2933;52.302;8.134;2023-08-31T15:29:21;100016.81;;;14.95;100.00
5814;BME280;2933;52.302;8.134;2023-08-31T15:34:24;100013.81;;;15.19;100.00
5814;BME280;2933;52.302;8.134;2023-08-31T15:39:26;100012.50;;;15.34;100.00
5814;BME280;2933;52.302;8.134;2023-08-31T15:44:27;100011.19;;;15.19;100.00
5814;BME280;2933;52.302;8.134;2023-08-31T15:49:30;100013.44;;;15.24;100.00
5814;BME280;2933;52.302;8.134;2023-08-31T15:54:32;100022.97;;;15.15;100.00
5814;BME280;2933;52.302;8.134;2023-08-31T15:59:33;100018.00;;;15.22;100.00
5814;BME280;2933;52.302;8.134;2023-08-31T16:04:36;100031.16;;;15.22;100.00
5814;BME280;2933;52.302;8.134;2023-08-31T16:09:37;100028.94;;;15.17;100.00
5814;BME280;2933;52.302;8.134;2023-08-31T16:14:39;100030.19;;;15.23;100.00
5814;BME280;2933;52.302;8.134;2023-08-31T16:19:42;100020.50;;;15.23;100.00
5814;BME280;2933;52.302;8.134;2023-08-31T16:24:44;100023.25;;;15.22;100.00
5814;BME280;2933;52.302;8.134;2023-08-31T16:29:46;100023.13;;;15.23;100.00
5814;BME280;2933;52.302;8.134;2023-08-31T16:34:52;100029.94;;;15.26;100.00
5814;BME280;2933;52.302;8.134;2023-08-31T16:39:53;100022.84;;;15.26;100.00
5814;BME280;2933;52.302;8.134;2023-08-31T16:44:55;100023.00;;;15.25;100.00
5814;BME280;2933;52.302;8.134;2023-08-31T16:49:59;100024.66;;;15.26;100.00
5814;BME280;2933;52.302;8.134;2023-08-31T16:55:00;100025.63;;;15.25;100.00
5814;BME280;2933;52.302;8.134;2023-08-31T17:00:05;100016.19;;;15.12;100.00
5814;BME280;2933;52.302;8.134;2023-08-31T17:05:09;100021.59;;;15.11;100.00
5814;BME280;2933;52.302;8.134;2023-08-31T17:10:11;100023.47;;;14.99;100.00
5814;BME280;2933;52.302;8.134;2023-08-31T17:15:12;100029.31;;;15.02;100.00
5814;BME280;2933;52.302;8.134;2023-08-31T17:20:15;100024.28;;;14.90;100.00
5814;BME280;2933;52.302;8.134;2023-08-31T17:25:18;100027.44;;;14.83;100.00
5814;BME280;2933;52.302;8.134;2023-08-31T17:30:20;100044.03;;;14.84;100.00
5814;BME280;2933;52.302;8.134;2023-08-31T17:35:23;100035.34;;;14.83;100.00
5814;BME280;2933;52.302;8.134;2023-08-31T17:40:24;100038.56;;;14.66;100.00
5814;BME280;2933;52.302;8.134;2023-08-31T17:45:26;100035.59;;;14.59;100.00
5814;BME280;2933;52.302;8.134;2023-08-31T17:50:29;100032.41;;;14.34;100.00
5814;BME280;2933;52.302;8.134;2023-08-31T17:55:32;100036.47;;;14.17;100.00
5814;BME280;2933;52.302;8.134;2023-08-31T18:00:33;100047.13;;;14.04;100.00
5814;BME280;2933;52.302;8.134;2023-08-31T18:05:36;100051.00;;;14.00;100.00
5814;BME280;2933;52.302;8.134;2023-08-31T18:10:38;100051.69;;;13.81;100.00
5814;BME280;2933;52.302;8.134;2023-08-31T18:15:45;100051.13;;;13.66;100.00
5814;BME280;2933;52.302;8.134;2023-08-31T18:20:48;100066.66;;;13.58;100.00
5814;BME280;2933;52.302;8.134;2023-08-31T18:25:49;100071.19;;;13.56;100.00
5814;BME280;2933;52.302;8.134;2023-08-31T18:30:53;100084.59;;;13.41;100.00
5814;BME280;2933;52.302;8.134;2023-08-31T18:35:57;100084.06;;;13.36;100.00
5814;BME280;2933;52.302;8.134;2023-08-31T18:40:59;100077.25;;;13.34;100.00
5814;BME280;2933;52.302;8.134;2023-08-31T18:46:03;100093.50;;;13.28;100.00
5814;BME280;2933;52.302;8.134;2023-08-31T18:51:07;100096.59;;;13.21;100.00
5814;BME280;2933;52.302;8.134;2023-08-31T18:56:08;100101.16;;;13.08;100.00
5814;BME280;2933;52.302;8.134;2023-08-31T19:01:10;100104.94;;;13.04;100.00
5814;BME280;2933;52.302;8.134;2023-08-31T19:06:12;100104.00;;;12.93;100.00
5814;BME280;2933;52.302;8.134;2023-08-31T19:11:14;100109.69;;;12.65;100.00
5814;BME280;2933;52.302;8.134;2023-08-31T19:16:16;100115.63;;;12.67;100.00
5814;BME280;2933;52.302;8.134;2023-08-31T19:21:19;100110.75;;;12.62;100.00
5814;BME280;2933;52.302;8.134;2023-08-31T19:26:21;100120.63;;;12.58;100.00
5814;BME280;2933;52.302;8.134;2023-08-31T19:31:22;100110.78;;;12.38;100.00
5814;BME280;2933;52.302;8.134;2023-08-31T19:36:25;100122.91;;;12.27;100.00
5814;BME280;2933;52.302;8.134;2023-08-31T19:41:27;100118.94;;;12.22;100.00
5814;BME280;2933;52.302;8.134;2023-08-31T19:46:28;100103.06;;;12.12;100.00
5814;BME280;2933;52.302;8.134;2023-08-31T19:51:31;100130.84;;;12.15;100.00
5814;BME280;2933;52.302;8.134;2023-08-31T19:56:33;100112.13;;;12.08;100.00
5814;BME280;2933;52.302;8.134;2023-08-31T20:01:35;100115.19;;;12.02;100.00
5814;BME280;2933;52.302;8.134;2023-08-31T20:06:38;100121.59;;;11.98;100.00
5814;BME280;2933;52.302;8.134;2023-08-31T20:11:39;100123.03;;;12.02;100.00
5814;BME280;2933;52.302;8.134;2023-08-31T20:16:41;100126.31;;;11.79;100.00
5814;BME280;2933;52.302;8.134;2023-08-31T20:21:45;100137.66;;;11.80;100.00
5814;BME280;2933;52.302;8.134;2023-08-31T20:26:47;100143.72;;;11.80;100.00
5814;BME280;2933;52.302;8.134;2023-08-31T20:31:50;100141.69;;;11.60;100.00
5814;BME280;2933;52.302;8.134;2023-08-31T20:36:53;100141.78;;;11.58;100.00
5814;BME280;2933;52.302;8.134;2023-08-31T20:41:55;100135.72;;;11.58;100.00
5814;BME280;2933;52.302;8.134;2023-08-31T20:46:59;100144.00;;;11.52;100.00
5814;BME280;2933;52.302;8.134;2023-08-31T20:52:05;100141.13;;;11.30;100.00
5814;BME280;2933;52.302;8.134;2023-08-31T20:57:07;100147.78;;;11.35;100.00
5814;BME280;2933;52.302;8.134;2023-08-31T21:02:08;100142.56;;;11.09;100.00
5814;BME280;2933;52.302;8.134;2023-08-31T21:07:11;100143.53;;;11.21;100.00
5814;BME280;2933;52.302;8.134;2023-08-31T21:12:12;100161.00;;;11.20;100.00
5814;BME280;2933;52.302;8.134;2023-08-31T21:17:15;100152.94;;;11.23;100.00
5814;BME280;2933;52.302;8.134;2023-08-31T21:22:18;100150.13;;;11.26;100.00
5814;BME280;2933;52.302;8.134;2023-08-31T21:27:19;100154.81;;;11.08;100.00
5814;BME280;2933;52.302;8.134;2023-08-31T21:32:21;100148.16;;;11.04;100.00
5814;BME280;2933;52.302;8.134;2023-08-31T21:37:24;100155.53;;;10.97;100.00
5814;BME280;2933;52.302;8.134;2023-08-31T21:42:25;100151.81;;;11.02;100.00
5814;BME280;2933;52.302;8.134;2023-08-31T21:47:27;100155.66;;;10.96;100.00
5814;BME280;2933;52.302;8.134;2023-08-31T21:52:30;100140.91;;;10.82;100.00
5814;BME280;2933;52.302;8.134;2023-08-31T21:57:31;100161.06;;;10.80;100.00
5814;BME280;2933;52.302;8.134;2023-08-31T22:02:33;100148.94;;;10.79;100.00
5814;BME280;2933;52.302;8.134;2023-08-31T22:07:36;100158.25;;;10.70;100.00
5814;BME280;2933;52.302;8.134;2023-08-31T22:12:38;100169.22;;;10.75;100.00
5814;BME280;2933;52.302;8.134;2023-08-31T22:17:41;100162.81;;;10.66;100.00
5814;BME280;2933;52.302;8.134;2023-08-31T22:22:46;100170.47;;;10.70;100.00
5814;BME280;2933;52.302;8.134;2023-08-31T22:27:49;100171.94;;;10.74;100.00
5814;BME280;2933;52.302;8.134;2023-08-31T22:32:51;100165.78;;;10.62;100.00
5814;BME280;2933;52.302;8.134;2023-08-31T22:37:54;100178.19;;;10.58;100.00
5814;BME280;2933;52.302;8.134;2023-08-31T22:42:55;100164.78;;;10.50;100.00
5814;BME280;2933;52.302;8.134;2023-08-31T22:47:57;100170.53;;;10.55;100.00
5814;BME280;2933;52.302;8.134;2023-08-31T22:53:00;100179.94;;;10.45;100.00
5814;BME280;2933;52.302;8.134;2023-08-31T22:58:03;100168.78;;;10.56;100.00
5814;BME280;2933;52.302;8.134;2023-08-31T23:03:05;100180.28;;;10.53;100.00
5814;BME280;2933;52.302;8.134;2023-08-31T23:08:11;100182.44;;;10.46;100.00
5814;BME280;2933;52.302;8.134;2023-08-31T23:13:13;100197.69;;;10.40;100.00
5814;BME280;2933;52.302;8.134;2023-08-31T23:18:15;100183.75;;;10.39;100.00
5814;BME280;2933;52.302;8.134;2023-08-31T23:23:18;100177.59;;;10.40;100.00
5814;BME280;2933;52.302;8.134;2023-08-31T23:28:19;100177.03;;;10.35;100.00
5814;BME280;2933;52.302;8.134;2023-08-31T23:33:21;100164.66;;;10.39;100.00
5814;BME280;2933;52.302;8.134;2023-08-31T23:38:24;100162.47;;;10.45;100.00
5814;BME280;2933;52.302;8.134;2023-08-31T23:43:26;100165.50;;;10.39;100.00
5814;BME280;2933;52.302;8.134;2023-08-31T23:48:28;100166.34;;;10.40;100.00
5814;BME280;2933;52.302;8.134;2023-08-31T23:53:31;100175.44;;;10.47;100.00
5814;BME280;2933;52.302;8.134;2023-08-31T23:58:33;100173.03;;;10.44;100.00
